Time;durP1;ratioP1;P1;durP2;ratioP2;P2;SDS_P1;SDS_P2;PMS_P1;PMS_P2;Temp;Humidity;BMP_temperature;BMP_pressure;BME280_temperature;BME280_humidity;BME280_pressure;Samples;Min_cycle;Max_cycle;Signal;HPM_P1;HPM_P2
2022/11/04 00:01:44;;;;;;;38.72;17.00;;;;;;;15.00;75.39;101127.34;5071542;28;20025;-77
2022/11/04 00:04:11;;;;;;;37.13;18.15;;;;;;;14.97;75.55;101123.06;5071460;28;20028;-76
2022/11/04 00:06:37;;;;;;;39.25;16.80;;;;;;;14.90;75.61;101121.03;5071635;28;20158;-76
2022/11/04 00:09:05;;;;;;;112.80;22.63;;;;;;;14.88;75.86;101123.91;5071078;28;20059;-76
2022/11/04 00:14:17;;;;;;;63.25;19.83;;;;;;;14.74;75.47;101101.81;5008984;28;20043;-75
2022/11/04 00:19:26;;;;;;;58.67;18.88;;;;;;;14.53;76.19;101085.63;5009218;28;20479;-76
2022/11/04 00:29:59;;;;;;;31.50;18.90;;;;;;;14.53;76.54;101112.69;5008763;28;20028;-77
2022/11/04 00:35:10;;;;;;;40.47;18.10;;;;;;;14.58;76.38;101105.03;5008852;28;20065;-77
2022/11/04 00:37:41;;;;;;;28.83;18.30;;;;;;;14.51;76.55;101099.31;5008385;28;20080;-77
2022/11/04 00:40:08;;;;;;;31.38;17.52;;;;;;;14.47;76.57;101105.13;4992255;28;20601;-77
2022/11/04 00:42:34;;;;;;;35.33;18.52;;;;;;;14.46;76.51;101100.72;5008677;28;20034;-76
2022/11/04 00:45:00;;;;;;;41.40;20.23;;;;;;;14.37;77.05;101096.16;5008401;28;20204;-77
2022/11/04 00:47:25;;;;;;;42.17;21.15;;;;;;;14.38;77.18;101097.84;5008697;28;20453;-77
2022/11/04 00:49:51;;;;;;;40.67;18.73;;;;;;;14.39;77.20;101089.59;5012978;28;20033;-77
2022/11/04 00:52:16;;;;;;;55.35;19.92;;;;;;;14.33;77.34;101092.00;5070024;28;20036;-76
2022/11/04 00:54:42;;;;;;;31.70;19.48;;;;;;;14.34;77.22;101082.91;5079343;28;20052;-75
2022/11/04 00:57:14;;;;;;;31.13;19.20;;;;;;;14.15;77.32;101057.47;5077724;28;20024;-76
2022/11/04 00:59:39;;;;;;;32.00;18.65;;;;;;;14.16;76.99;101061.00;5071651;28;20024;-77
2022/11/04 01:02:06;;;;;;;30.85;18.40;;;;;;;14.11;77.10;101060.56;5070821;28;20116;-77
2022/11/04 01:04:31;;;;;;;35.15;17.48;;;;;;;14.24;77.33;101082.81;5070464;28;20368;-77
2022/11/04 01:06:57;;;;;;;31.48;17.50;;;;;;;14.23;77.28;101074.84;5070286;28;20065;-76
2022/11/04 01:09:23;;;;;;;92.90;21.63;;;;;;;14.16;77.40;101072.69;5069203;28;20483;-76
2022/11/04 01:11:48;;;;;;;72.97;19.42;;;;;;;14.18;77.36;101081.53;5034596;28;20070;-76
2022/11/04 01:14:14;;;;;;;39.30;20.33;;;;;;;14.12;77.56;101076.66;5070247;28;20040;-76
2022/11/04 01:16:39;;;;;;;87.30;23.05;;;;;;;14.15;77.50;101076.41;5070155;28;20025;-76
2022/11/04 01:19:05;;;;;;;58.88;22.63;;;;;;;14.15;77.21;101065.56;5070054;28;20040;-76
2022/11/04 01:21:31;;;;;;;53.20;19.75;;;;;;;14.16;77.24;101071.81;5070175;28;20559;-76
2022/11/04 01:23:58;;;;;;;125.82;22.42;;;;;;;14.16;77.24;101075.38;5070181;28;20115;-77
2022/11/04 01:26:25;;;;;;;57.70;19.95;;;;;;;14.15;77.41;101076.41;5070003;28;20024;-76
2022/11/04 01:28:53;;;;;;;29.88;18.20;;;;;;;14.18;77.35;101075.25;5069689;28;20036;-76
2022/11/04 01:31:21;;;;;;;32.20;18.15;;;;;;;14.12;77.59;101082.09;5069770;28;20085;-76
2022/11/04 01:33:48;;;;;;;34.75;18.73;;;;;;;14.04;77.95;101073.78;5069676;28;20419;-77
2022/11/04 01:36:13;;;;;;;166.10;25.85;;;;;;;14.03;77.99;101063.09;5069888;28;20086;-77
2022/11/04 01:38:39;;;;;;;39.08;18.55;;;;;;;14.05;78.10;101064.69;5069620;28;20577;-78
2022/11/04 01:41:05;;;;;;;50.28;18.20;;;;;;;14.08;78.01;101060.84;5069679;28;20033;-76
2022/11/04 01:43:52;;;;;;;41.72;19.95;;;;;;;14.06;78.22;101068.25;5069953;28;20078;-77
2022/11/04 01:46:37;;;;;;;58.72;20.20;;;;;;;14.03;78.29;101068.50;5069559;28;20028;-76
2022/11/04 01:49:12;;;;;;;30.45;17.45;;;;;;;13.87;78.34;101033.00;5069838;28;20025;-77
2022/11/04 01:51:39;;;;;;;44.05;18.73;;;;;;;13.86;78.30;101042.94;5069435;28;20375;-76
2022/11/04 01:54:07;;;;;;;47.65;19.65;;;;;;;13.93;78.58;101059.50;5069788;28;20029;-76
2022/11/04 01:56:33;;;;;;;37.08;19.98;;;;;;;13.93;78.50;101057.66;5069762;28;20024;-76
2022/11/04 01:59:05;;;;;;;59.50;20.10;;;;;;;13.92;78.72;101061.34;5069650;28;20036;-77
2022/11/04 02:01:31;;;;;;;52.55;19.67;;;;;;;13.91;78.69;101050.66;5071229;28;20067;-76
2022/11/04 02:06:49;;;;;;;39.88;18.92;;;;;;;13.82;78.52;101044.19;5016731;28;20532;-76
2022/11/04 02:09:16;;;;;;;87.00;22.63;;;;;;;13.82;78.65;101049.59;5009913;28;20058;-77
2022/11/04 02:14:26;;;;;;;135.63;25.92;;;;;;;13.82;78.88;101041.50;5007453;28;20033;-77
2022/11/04 02:17:00;;;;;;;101.60;23.85;;;;;;;13.79;78.36;101036.38;5007318;28;20029;-77
2022/11/04 02:20:03;;;;;;;149.13;26.70;;;;;;;13.80;78.74;101046.19;5007184;28;20068;-76
2022/11/04 02:23:05;;;;;;;84.47;22.02;;;;;;;13.81;78.66;101039.81;5007377;28;20104;-77
2022/11/04 02:26:05;;;;;;;63.03;20.70;;;;;;;13.77;78.66;101054.59;5007138;28;20108;-76
2022/11/04 02:29:07;;;;;;;37.45;19.58;;;;;;;13.74;78.90;101044.03;5007100;28;20034;-77
2022/11/04 02:31:49;;;;;;;243.93;34.45;;;;;;;13.73;78.98;101047.72;5007452;28;20045;-76
2022/11/04 02:34:14;;;;;;;200.10;31.00;;;;;;;13.70;79.20;101037.19;5006998;28;20034;-76
2022/11/04 02:36:51;;;;;;;86.78;21.95;;;;;;;13.71;79.37;101038.91;5007067;28;20261;-77
2022/11/04 02:39:25;;;;;;;312.63;36.03;;;;;;;13.65;79.52;101039.44;5007154;28;20034;-77
2022/11/04 02:42:44;;;;;;;127.82;25.42;;;;;;;13.55;79.69;101015.06;5007067;28;20529;-76
2022/11/04 02:45:44;;;;;;;184.00;27.38;;;;;;;13.70;79.68;101042.59;4987507;28;20034;-76
2022/11/04 02:48:39;;;;;;;64.68;21.25;;;;;;;13.51;79.77;101005.53;4948779;28;20039;-76
2022/11/04 02:51:38;;;;;;;107.13;21.92;;;;;;;13.48;79.82;101018.44;4948662;28;20451;-77
2022/11/04 02:54:07;;;;;;;53.83;19.52;;;;;;;13.56;80.30;101029.44;4948783;28;20070;-76
2022/11/04 02:56:38;;;;;;;47.15;21.48;;;;;;;13.53;80.27;101035.97;4949124;28;20545;-76
2022/11/04 02:59:28;;;;;;;35.17;19.35;;;;;;;13.58;80.49;101031.00;4948681;28;20137;-76
2022/11/04 03:01:56;;;;;;;76.82;22.02;;;;;;;13.52;80.58;101022.56;4948896;28;20027;-76
2022/11/04 03:04:29;;;;;;;61.75;22.30;;;;;;;13.56;80.46;101024.88;4948505;28;20495;-76
2022/11/04 03:06:57;;;;;;;47.90;21.83;;;;;;;13.40;80.39;101007.44;4948552;28;20079;-76
2022/11/04 03:09:26;;;;;;;75.32;24.10;;;;;;;13.54;81.03;101029.59;4948507;28;20083;-77
2022/11/04 03:11:57;;;;;;;56.47;22.92;;;;;;;13.52;80.88;101022.56;4948840;28;20039;-76
2022/11/04 03:14:33;;;;;;;49.17;21.80;;;;;;;13.38;80.91;100994.06;4953575;28;20043;-77
2022/11/04 03:17:04;;;;;;;55.72;20.40;;;;;;;13.55;80.99;101023.16;4956674;29;20203;-76
2022/11/04 03:19:43;;;;;;;56.72;22.25;;;;;;;13.39;81.36;100995.75;4985414;28;20057;-76
2022/11/04 03:22:17;;;;;;;50.55;22.20;;;;;;;13.58;81.50;101028.31;4987295;28;20532;-76
2022/11/04 03:24:45;;;;;;;49.72;21.45;;;;;;;13.50;81.49;101024.56;5041758;28;20144;-76
2022/11/04 03:27:17;;;;;;;52.95;20.90;;;;;;;13.50;81.66;101029.97;5048658;28;20400;-76
2022/11/04 03:30:05;;;;;;;62.93;22.07;;;;;;;13.56;81.68;101029.44;5048512;28;20491;-76
2022/11/04 03:32:36;;;;;;;52.85;23.00;;;;;;;13.57;81.56;101036.56;5050162;28;20440;-76
2022/11/04 03:35:02;;;;;;;46.53;23.25;;;;;;;13.50;81.79;101024.56;5052433;28;20025;-76
2022/11/04 03:37:28;;;;;;;63.65;21.45;;;;;;;13.52;81.80;101028.84;5052200;28;20040;-77
2022/11/04 03:39:54;;;;;;;42.65;21.90;;;;;;;13.56;81.28;101032.13;5051831;28;20029;-77
2022/11/04 03:42:22;;;;;;;54.60;24.92;;;;;;;13.54;81.56;101034.13;5052244;28;20031;-77
2022/11/04 03:44:57;;;;;;;40.45;21.33;;;;;;;13.45;81.59;101016.00;5051979;28;20787;-79
2022/11/04 03:47:26;;;;;;;60.70;21.85;;;;;;;13.54;81.73;101026.03;5052489;28;20506;-79
2022/11/04 03:49:58;;;;;;;60.33;22.33;;;;;;;13.54;81.98;101032.28;5051138;28;20029;-79
2022/11/04 03:52:24;;;;;;;83.22;22.70;;;;;;;13.51;82.22;101031.69;5052809;28;20032;-79
2022/11/04 03:54:49;;;;;;;89.18;23.50;;;;;;;13.50;82.12;101017.31;5052085;28;20040;-76
2022/11/04 03:57:21;;;;;;;49.10;24.05;;;;;;;13.33;82.29;100990.06;5052337;28;20095;-77
2022/11/04 03:59:58;;;;;;;43.58;23.70;;;;;;;13.50;82.27;101014.63;5051880;28;20033;-75
2022/11/04 04:02:36;;;;;;;57.33;23.50;;;;;;;13.51;82.76;101010.94;5051957;28;20104;-76
2022/11/04 04:05:10;;;;;;;40.63;21.88;;;;;;;13.48;82.57;101004.94;5052094;28;20029;-76
2022/11/04 04:07:47;;;;;;;44.72;21.58;;;;;;;13.50;82.69;101008.34;5054777;28;20064;-75
2022/11/04 04:10:38;;;;;;;153.20;27.20;;;;;;;13.53;82.88;101013.50;5071532;28;20384;-76
2022/11/04 04:13:20;;;;;;;111.35;24.77;;;;;;;13.45;83.05;101003.38;5071648;28;20031;-75
2022/11/04 04:15:51;;;;;;;70.85;22.65;;;;;;;13.38;83.17;100987.81;5071660;28;20143;-75
2022/11/04 04:18:23;;;;;;;49.50;23.02;;;;;;;13.50;83.15;101011.91;5071595;28;20125;-75
2022/11/04 04:20:50;;;;;;;72.05;25.88;;;;;;;13.56;83.38;101008.69;5071368;28;20025;-75
2022/11/04 04:28:55;;;;;;;58.63;22.10;;;;;;;13.58;83.29;101011.22;5077301;28;20410;-77
2022/11/04 04:34:07;;;;;;;83.10;26.80;;;;;;;13.59;83.25;101010.25;5071617;28;20048;-75
2022/11/04 04:36:41;;;;;;;55.53;23.38;;;;;;;13.54;83.57;100999.84;5071035;28;20032;-75
2022/11/04 04:47:27;;;;;;;95.43;25.52;;;;;;;13.70;84.11;100999.31;5080296;28;20039;-75
2022/11/04 04:49:58;;;;;;;73.72;24.40;;;;;;;13.68;83.71;100998.63;5079503;28;20032;-75
2022/11/04 04:52:27;;;;;;;85.95;26.98;;;;;;;13.74;84.22;101010.72;5080291;28;20103;-76
2022/11/04 04:54:52;;;;;;;57.25;24.63;;;;;;;13.63;84.36;100981.97;5079632;28;20422;-75
2022/11/04 04:57:18;;;;;;;75.43;24.83;;;;;;;13.81;84.27;101006.50;5080718;28;20020;-76
2022/11/04 04:59:43;;;;;;;94.22;26.08;;;;;;;13.86;84.32;101010.50;5079617;28;20429;-76
2022/11/04 05:02:09;;;;;;;68.55;23.17;;;;;;;13.80;84.51;100989.41;5079616;28;20644;-74
2022/11/04 05:04:34;;;;;;;64.85;24.35;;;;;;;13.92;84.54;101009.09;5078509;28;20024;-75
2022/11/04 05:07:00;;;;;;;65.30;26.67;;;;;;;14.00;84.02;101006.59;5079580;28;20519;-75
2022/11/04 05:09:26;;;;;;;198.52;35.67;;;;;;;14.03;84.05;101006.31;5079609;28;20051;-76
2022/11/04 05:11:51;;;;;;;148.43;35.42;;;;;;;14.08;84.25;101012.16;5085307;28;20020;-75
2022/11/04 05:14:17;;;;;;;79.13;30.15;;;;;;;14.17;83.88;101009.47;5083922;28;20020;-74
2022/11/04 05:16:42;;;;;;;80.60;29.55;;;;;;;14.21;84.00;101009.19;5079894;28;20078;-74
2022/11/04 05:19:07;;;;;;;80.53;29.75;;;;;;;14.05;84.22;100978.13;5070714;28;20195;-74
2022/11/04 05:21:33;;;;;;;130.80;32.88;;;;;;;14.28;84.27;101010.38;5070352;28;20051;-74
2022/11/04 05:23:58;;;;;;;106.10;32.78;;;;;;;14.32;83.79;101003.66;5070050;28;20437;-76
2022/11/04 05:26:24;;;;;;;134.63;33.30;;;;;;;14.32;83.74;101007.22;5076420;28;20478;-75
2022/11/04 05:28:49;;;;;;;91.00;34.97;;;;;;;14.37;84.00;101009.56;5035417;28;20127;-74
2022/11/04 05:31:15;;;;;;;93.47;34.67;;;;;;;14.42;83.55;101007.28;5074837;28;20029;-75
2022/11/04 05:33:40;;;;;;;103.45;37.70;;;;;;;14.51;83.49;101009.13;5087059;28;20475;-76
2022/11/04 05:36:10;;;;;;;95.28;36.75;;;;;;;14.53;83.89;101009.84;5089756;28;20427;-76
2022/11/04 05:38:36;;;;;;;84.80;39.38;;;;;;;14.57;84.08;101006.72;5076832;28;20054;-77
2022/11/04 05:41:02;;;;;;;93.28;39.13;;;;;;;14.56;84.21;100998.72;5094535;28;20417;-76
2022/11/04 05:43:27;;;;;;;125.40;45.05;;;;;;;14.75;84.02;101015.00;5086363;28;20054;-73
2022/11/04 05:45:53;;;;;;;136.20;43.10;;;;;;;14.78;84.01;101009.28;5080073;28;20126;-75
2022/11/04 05:48:19;;;;;;;105.22;42.75;;;;;;;14.72;83.71;100988.22;5077930;28;20031;-76
2022/11/04 05:50:44;;;;;;;130.05;40.38;;;;;;;14.82;83.90;100990.91;5080419;28;20028;-76
2022/11/04 05:53:09;;;;;;;107.18;36.85;;;;;;;14.98;83.63;101021.81;5072571;28;20028;-76
2022/11/04 05:55:35;;;;;;;83.30;30.58;;;;;;;15.07;83.91;101020.13;5076298;28;20024;-77
2022/11/04 05:58:00;;;;;;;111.78;35.63;;;;;;;15.01;83.80;100989.06;5088752;28;20024;-75
2022/11/04 06:00:26;;;;;;;82.45;30.63;;;;;;;15.05;83.88;101001.28;5089419;28;20043;-77
2022/11/04 06:02:55;;;;;;;59.00;27.17;;;;;;;15.26;83.86;101026.34;5089200;28;20028;-77
2022/11/04 06:05:21;;;;;;;104.93;32.33;;;;;;;15.36;83.90;101025.50;5087098;28;20405;-76
2022/11/04 06:07:47;;;;;;;72.05;29.98;;;;;;;15.49;84.21;101032.34;5068979;28;20127;-76
2022/11/04 06:10:12;;;;;;;84.15;33.80;;;;;;;15.56;83.92;101021.78;5069663;28;20089;-74
2022/11/04 06:12:38;;;;;;;85.65;31.33;;;;;;;15.67;83.75;101027.88;5068922;28;20040;-78
2022/11/04 06:15:04;;;;;;;101.10;27.55;;;;;;;15.71;83.50;101020.31;5069215;28;20036;-74
2022/11/04 06:17:29;;;;;;;65.60;28.10;;;;;;;15.82;83.58;101027.38;5069226;28;20028;-76
2022/11/04 06:19:56;;;;;;;60.33;25.63;;;;;;;15.86;83.47;101009.81;5068941;28;20025;-74
2022/11/04 06:22:21;;;;;;;60.47;23.98;;;;;;;15.99;83.16;101019.31;5068741;28;20514;-75
2022/11/04 06:24:47;;;;;;;116.25;26.38;;;;;;;16.08;83.13;101021.16;5069148;28;20029;-74
2022/11/04 06:27:12;;;;;;;89.47;23.58;;;;;;;16.12;83.42;101014.38;5068787;28;20618;-75
2022/11/04 06:29:39;;;;;;;64.15;25.27;;;;;;;16.21;83.38;101021.63;5068312;28;20028;-74
2022/11/04 06:32:10;;;;;;;56.70;23.60;;;;;;;16.32;83.03;101010.59;5068696;28;20056;-75
2022/11/04 06:34:36;;;;;;;64.72;24.20;;;;;;;16.42;82.42;101026.78;5069117;28;20412;-75
2022/11/04 06:37:01;;;;;;;71.57;24.63;;;;;;;16.46;82.25;101021.91;5068939;28;20020;-74
2022/11/04 06:39:27;;;;;;;42.45;21.17;;;;;;;16.47;82.44;101037.19;5068673;28;20032;-75
2022/11/04 06:41:52;;;;;;;42.70;21.95;;;;;;;16.26;83.29;101046.47;5068631;28;20035;-74
2022/11/04 06:44:17;;;;;;;40.47;22.00;;;;;;;16.30;83.44;101033.44;5068516;28;20025;-73
2022/11/04 06:46:43;;;;;;;51.42;20.67;;;;;;;16.29;83.48;101043.47;5069039;28;20028;-74
2022/11/04 06:49:16;;;;;;;34.80;19.55;;;;;;;16.12;82.78;101011.69;5069836;28;20037;-74
2022/11/04 06:51:42;;;;;;;33.10;20.15;;;;;;;16.09;83.48;101017.41;5070337;28;20067;-74
2022/11/04 06:54:08;;;;;;;47.20;19.40;;;;;;;16.00;82.99;101009.31;5069997;28;20089;-75
2022/11/04 06:56:33;;;;;;;40.65;20.65;;;;;;;16.21;83.32;101032.47;5068612;28;20459;-74
2022/11/04 06:58:59;;;;;;;57.15;22.40;;;;;;;16.18;83.27;101030.06;5068171;28;20032;-74
2022/11/04 07:01:27;;;;;;;56.63;25.70;;;;;;;16.15;83.44;101026.81;5072518;28;20495;-74
2022/11/04 07:03:57;;;;;;;76.20;22.55;;;;;;;16.20;83.49;101028.09;5089194;28;20131;-77
2022/11/04 07:06:24;;;;;;;28.75;19.27;;;;;;;16.10;83.25;101005.56;5089432;28;20039;-78
2022/11/04 07:08:51;;;;;;;40.63;20.73;;;;;;;16.18;83.09;101029.22;5081442;28;20047;-77
2022/11/04 07:11:21;;;;;;;37.70;18.60;;;;;;;16.18;82.99;101019.22;5072747;28;20032;-76
2022/11/04 07:13:47;;;;;;;40.50;16.92;;;;;;;16.26;82.72;101024.75;5072330;28;20031;-76
2022/11/04 07:16:14;;;;;;;58.38;18.30;;;;;;;16.20;81.82;101022.66;5072902;28;20028;-77
2022/11/04 07:18:40;;;;;;;37.88;17.13;;;;;;;16.19;82.08;101020.94;5071819;28;20031;-76
2022/11/04 07:21:06;;;;;;;35.97;17.83;;;;;;;16.10;81.93;101020.97;5072229;28;20021;-76
2022/11/04 07:23:31;;;;;;;45.47;16.95;;;;;;;16.00;82.41;101004.75;5072329;28;20463;-76
2022/11/04 07:26:05;;;;;;;42.47;18.13;;;;;;;16.09;82.68;101009.25;5072666;28;20052;-77
2022/11/04 07:28:31;;;;;;;95.95;20.25;;;;;;;16.18;82.03;101008.34;5054678;28;20028;-77
2022/11/04 07:30:58;;;;;;;53.75;18.38;;;;;;;16.16;81.82;100987.81;5072265;28;20016;-77
2022/11/04 07:33:25;;;;;;;41.40;16.75;;;;;;;16.24;82.00;100991.47;5019883;28;20037;-76
2022/11/04 07:35:51;;;;;;;35.42;16.90;;;;;;;16.27;81.70;101012.88;5072176;28;20032;-76
2022/11/04 07:38:17;;;;;;;37.63;17.85;;;;;;;16.33;82.32;101006.84;5072419;28;20036;-77
2022/11/04 07:40:42;;;;;;;39.63;18.98;;;;;;;16.40;82.15;101003.50;5072153;28;20028;-76
2022/11/04 07:43:08;;;;;;;77.38;19.17;;;;;;;16.48;81.90;101009.88;5072360;28;20031;-76
2022/11/04 07:45:33;;;;;;;151.85;20.52;;;;;;;16.34;80.68;100996.84;5072639;28;20407;-76
2022/11/04 07:47:59;;;;;;;38.97;16.65;;;;;;;16.48;80.08;100995.47;5072222;28;20439;-76
2022/11/04 07:50:24;;;;;;;35.30;16.88;;;;;;;16.50;79.69;100998.88;5071912;28;20017;-76
2022/11/04 07:52:50;;;;;;;31.20;17.23;;;;;;;16.50;79.48;100998.88;5019606;28;20033;-75
2022/11/04 07:55:17;;;;;;;31.63;15.23;;;;;;;16.68;80.19;101007.91;5071720;28;20086;-74
2022/11/04 07:57:43;;;;;;;23.77;14.35;;;;;;;16.70;79.84;100998.59;5074268;28;20036;-75
2022/11/04 08:00:10;;;;;;;63.78;16.63;;;;;;;16.81;79.73;101006.53;5079150;28;20056;-77
2022/11/04 08:02:35;;;;;;;34.35;15.40;;;;;;;16.82;78.89;100996.50;5043838;28;20039;-75
2022/11/04 08:05:01;;;;;;;68.93;17.48;;;;;;;16.84;78.61;100994.50;5073853;28;20531;-76
2022/11/04 08:07:26;;;;;;;47.85;15.82;;;;;;;16.77;78.76;100977.09;5087287;28;20032;-75
2022/11/04 08:09:51;;;;;;;43.38;18.08;;;;;;;16.96;78.52;100993.25;5091531;28;20035;-76
2022/11/04 08:12:19;;;;;;;62.60;15.95;;;;;;;17.05;77.70;100981.44;5091017;28;20490;-76
2022/11/04 08:14:45;;;;;;;35.78;16.75;;;;;;;17.12;77.49;100971.66;5091652;28;20024;-76
2022/11/04 08:17:10;;;;;;;43.75;15.57;;;;;;;17.40;76.54;100992.22;5090767;28;20032;-76
2022/11/04 08:19:35;;;;;;;35.42;15.02;;;;;;;17.58;75.94;100989.50;5091011;28;20024;-76
2022/11/04 08:22:01;;;;;;;47.25;15.13;;;;;;;17.58;75.08;100984.06;5091458;28;20031;-76
2022/11/04 08:24:26;;;;;;;55.17;16.67;;;;;;;17.52;75.83;100994.69;5091551;28;20028;-77
2022/11/04 08:26:52;;;;;;;36.28;14.35;;;;;;;17.65;75.28;100995.13;5073560;28;20024;-77
2022/11/04 08:29:17;;;;;;;74.65;15.25;;;;;;;17.54;74.72;100965.44;5091010;28;20107;-75
2022/11/04 08:31:43;;;;;;;26.45;12.45;;;;;;;17.74;74.41;100992.28;5091254;28;20411;-76
2022/11/04 08:34:08;;;;;;;120.53;20.00;;;;;;;17.80;74.51;100972.59;5090808;28;20108;-77
2022/11/04 08:36:36;;;;;;;36.45;14.02;;;;;;;17.74;73.73;100961.50;5090807;28;20031;-76
2022/11/04 08:39:04;;;;;;;299.80;30.70;;;;;;;17.78;73.27;100973.75;5090756;28;20051;-76
2022/11/04 08:41:31;;;;;;;81.85;16.02;;;;;;;17.74;73.85;100980.53;5090958;28;20024;-76
2022/11/04 08:43:59;;;;;;;57.35;14.75;;;;;;;17.78;73.87;100979.22;5074386;28;20025;-75
2022/11/04 08:46:27;;;;;;;33.75;14.18;;;;;;;17.92;74.37;100976.72;5072024;28;20475;-77
2022/11/04 08:48:52;;;;;;;102.65;17.73;;;;;;;18.11;73.34;100970.16;5072246;28;20027;-77
2022/11/04 08:51:24;;;;;;;26.05;12.77;;;;;;;18.24;73.09;100965.09;5070737;28;20033;-77
2022/11/04 08:53:49;;;;;;;51.20;14.85;;;;;;;18.27;72.38;100936.69;5070328;28;20024;-77
2022/11/04 08:56:19;;;;;;;55.78;13.07;;;;;;;18.41;71.74;100958.66;5070501;28;20027;-77
2022/11/04 08:58:45;;;;;;;96.43;15.82;;;;;;;18.39;71.08;100946.22;5070643;28;20031;-77
2022/11/04 09:01:11;;;;;;;51.58;13.07;;;;;;;18.40;70.77;100943.38;5070454;28;20103;-77
2022/11/04 09:03:38;;;;;;;32.08;11.75;;;;;;;18.38;70.47;100942.66;5070318;28;20036;-76
2022/11/04 09:06:09;;;;;;;119.53;16.60;;;;;;;18.42;69.49;100941.31;5069920;28;20032;-76
2022/11/04 09:08:38;;;;;;;24.95;11.73;;;;;;;18.39;69.14;100949.81;5073000;28;20147;-75
2022/11/04 09:11:06;;;;;;;405.65;36.45;;;;;;;18.34;68.32;100938.59;5078023;28;20029;-77
2022/11/04 09:13:32;;;;;;;50.00;12.55;;;;;;;18.33;68.46;100936.00;5077583;28;20028;-77
2022/11/04 09:15:57;;;;;;;282.25;25.38;;;;;;;18.33;67.21;100936.88;5071484;28;20401;-76
2022/11/04 09:18:22;;;;;;;44.28;10.65;;;;;;;18.40;66.56;100943.38;5069625;28;20032;-75
2022/11/04 09:20:48;;;;;;;235.32;20.63;;;;;;;18.24;67.48;100921.53;5069781;28;20028;-76
2022/11/04 09:23:13;;;;;;;374.00;31.02;;;;;;;18.35;67.62;100933.97;5069857;28;20020;-77
2022/11/04 09:25:39;;;;;;;118.63;15.68;;;;;;;18.28;68.15;100925.63;5069951;28;20017;-76
2022/11/04 09:28:05;;;;;;;318.98;27.40;;;;;;;18.38;68.53;100929.03;5069716;28;20090;-76
2022/11/04 09:30:31;;;;;;;98.20;14.07;;;;;;;18.24;68.44;100924.25;5069048;28;20017;-76
2022/11/04 09:32:57;;;;;;;190.82;18.13;;;;;;;18.29;68.11;100897.38;5069604;28;20062;-76
2022/11/04 09:35:23;;;;;;;201.75;20.92;;;;;;;18.32;67.73;100913.38;5069602;28;20082;-76
2022/11/04 09:37:49;;;;;;;87.97;13.75;;;;;;;18.28;67.66;100922.06;5069669;28;20449;-76
2022/11/04 09:40:18;;;;;;;46.20;11.00;;;;;;;18.24;68.01;100917.97;5069635;28;20025;-76
2022/11/04 09:42:49;;;;;;;91.07;12.10;;;;;;;17.98;67.96;100851.91;5069391;28;20028;-78
2022/11/04 09:45:17;;;;;;;87.10;14.80;;;;;;;18.26;68.23;100908.59;5069493;28;20028;-76
2022/11/04 09:47:46;;;;;;;388.55;37.38;;;;;;;18.09;67.73;100895.97;5069591;28;20111;-76
2022/11/04 09:50:49;;;;;;;220.73;23.75;;;;;;;18.14;68.17;100899.03;5069109;28;20730;-76
2022/11/04 09:53:47;;;;;;;153.93;19.65;;;;;;;18.15;69.06;100892.59;5051271;28;20195;-76
2022/11/04 09:56:19;;;;;;;264.60;23.20;;;;;;;18.05;68.91;100883.72;5069340;28;20037;-78
2022/11/04 09:58:45;;;;;;;242.70;24.40;;;;;;;18.07;68.31;100891.72;5069033;28;20032;-76
2022/11/04 10:01:13;;;;;;;91.80;13.68;;;;;;;18.32;67.82;100877.97;5069171;28;20533;-76
2022/11/04 10:04:03;;;;;;;39.05;12.52;;;;;;;18.41;67.47;100867.94;5069016;28;20399;-76
2022/11/04 10:06:52;;;;;;;87.35;15.10;;;;;;;18.48;67.35;100858.91;5069152;28;20090;-75
2022/11/04 10:09:35;;;;;;;54.17;14.50;;;;;;;18.62;66.90;100867.47;5069171;28;20053;-77
2022/11/04 10:12:28;;;;;;;62.78;12.85;;;;;;;18.40;67.30;100841.75;5069203;28;20025;-76
2022/11/04 10:15:02;;;;;;;125.07;16.13;;;;;;;18.59;66.79;100860.47;5069757;28;20060;-76
2022/11/04 10:17:32;;;;;;;57.60;13.77;;;;;;;18.66;67.07;100869.66;5069215;28;20491;-77
2022/11/04 10:20:17;;;;;;;78.78;15.35;;;;;;;18.79;66.35;100847.34;5072082;28;20033;-77
2022/11/04 10:22:55;;;;;;;26.13;11.80;;;;;;;19.06;65.81;100846.97;5081092;28;20401;-77
2022/11/04 10:25:24;;;;;;;67.65;15.30;;;;;;;19.10;65.33;100842.00;5061465;28;20047;-76
2022/11/04 10:27:51;;;;;;;493.17;43.50;;;;;;;18.93;65.51;100842.03;5070438;28;20480;-77
2022/11/04 10:30:27;;;;;;;67.60;14.32;;;;;;;18.95;65.56;100806.44;5050796;28;20494;-76
2022/11/04 10:33:12;;;;;;;31.35;14.95;;;;;;;19.00;66.40;100832.16;5068974;28;20024;-75
2022/11/04 10:35:47;;;;;;;107.10;18.52;;;;;;;19.05;67.10;100823.44;5068995;28;20403;-77
2022/11/04 10:38:19;;;;;;;457.80;43.17;;;;;;;18.78;67.43;100782.97;5069133;28;20032;-76
2022/11/04 10:40:52;;;;;;;46.00;13.45;;;;;;;18.99;67.65;100824.13;5069581;28;20021;-75
2022/11/04 10:43:23;;;;;;;;;;;;;;;18.97;67.92;100820.75;5073745;28;20463;-76
2022/11/04 10:46:07;;;;;;;72.22;12.90;;;;;;;18.97;67.96;100810.69;5072653;28;20007;-75
2022/11/04 10:48:44;;;;;;;85.95;15.32;;;;;;;18.91;68.79;100805.94;5073040;28;20029;-76
2022/11/04 10:51:09;;;;;;;40.35;11.30;;;;;;;18.97;68.73;100804.38;5072851;28;20395;-76
2022/11/04 10:53:36;;;;;;;183.38;21.77;;;;;;;18.99;68.93;100807.78;5072895;28;20043;-76
2022/11/04 10:56:10;;;;;;;138.95;20.45;;;;;;;18.91;69.50;100799.63;5072320;28;20104;-76
2022/11/04 10:58:43;;;;;;;38.83;12.95;;;;;;;18.91;70.04;100794.19;5072676;28;20039;-76
2022/11/04 11:01:30;;;;;;;47.53;13.98;;;;;;;18.75;69.64;100759.66;5072509;28;20020;-76
2022/11/04 11:03:56;;;;;;;131.35;19.67;;;;;;;18.70;70.06;100788.44;5072457;28;20033;-76
2022/11/04 11:06:33;;;;;;;148.40;20.65;;;;;;;18.69;70.82;100775.84;5072493;28;20043;-76
2022/11/04 11:09:34;;;;;;;180.48;22.30;;;;;;;18.75;71.28;100773.28;5072796;28;20056;-75
2022/11/04 11:12:52;;;;;;;112.72;16.73;;;;;;;18.91;70.62;100777.84;4990584;28;20042;-77
2022/11/04 11:16:03;;;;;;;54.20;14.70;;;;;;;19.01;69.96;100762.13;4932444;29;20356;-76
2022/11/04 11:19:08;;;;;;;54.53;15.38;;;;;;;18.93;70.20;100759.41;4894855;29;20040;-76
2022/11/04 11:22:14;;;;;;;64.63;16.48;;;;;;;19.07;69.93;100769.59;4875898;29;20045;-76
2022/11/04 11:25:28;;;;;;;564.13;50.35;;;;;;;18.84;70.08;100753.16;4802454;29;20130;-76
2022/11/04 11:28:40;;;;;;;169.70;19.58;;;;;;;18.88;69.65;100756.38;4748521;30;20083;-76
2022/11/04 11:34:32;;;;;;;39.63;13.63;;;;;;;19.02;69.83;100742.00;5088542;27;1530166;-76
2022/11/04 11:37:02;;;;;;;47.85;14.20;;;;;;;18.72;71.25;100740.06;5100796;28;20051;-75
2022/11/04 11:39:30;;;;;;;55.47;15.40;;;;;;;18.81;71.51;100739.00;5070904;28;20035;-76
2022/11/04 11:41:56;;;;;;;98.15;15.48;;;;;;;18.88;71.23;100740.03;5106828;28;20035;-77
2022/11/04 11:44:24;;;;;;;156.25;23.00;;;;;;;19.09;70.73;100740.28;5106632;28;20032;-76
2022/11/04 11:46:54;;;;;;;26.50;12.98;;;;;;;19.14;70.37;100739.75;5106984;28;20038;-76
2022/11/04 11:49:29;;;;;;;196.75;22.58;;;;;;;19.22;69.56;100735.13;5106696;28;20024;-77
2022/11/04 11:52:15;;;;;;;28.33;13.88;;;;;;;18.94;70.16;100712.91;5106508;28;20032;-77
2022/11/04 11:54:45;;;;;;;173.55;21.92;;;;;;;19.09;69.65;100731.25;5106397;28;20271;-76
2022/11/04 11:57:23;;;;;;;78.13;15.25;;;;;;;18.88;69.98;100729.13;5106601;28;20505;-76
2022/11/04 11:59:56;;;;;;;140.50;18.52;;;;;;;18.77;70.40;100718.59;5106432;28;20505;-76
2022/11/04 12:02:38;;;;;;;37.55;14.75;;;;;;;18.72;71.20;100724.56;5106534;28;20032;-76
2022/11/04 12:05:11;;;;;;;39.65;12.57;;;;;;;18.85;70.08;100729.47;5106346;28;20387;-76
2022/11/04 12:07:45;;;;;;;95.45;16.13;;;;;;;18.89;69.64;100714.47;5106548;28;20085;-77